createdAt,value
2018-10-06T00:00:07.324Z,23.24
2018-10-06T00:02:36.538Z,23.21
2018-10-06T00:05:05.330Z,23.21
2018-10-06T00:07:33.718Z,23.20
2018-10-06T00:10:02.030Z,23.20
2018-10-06T00:12:30.419Z,23.18
2018-10-06T00:14:58.973Z,23.17
2018-10-06T00:17:27.556Z,23.16
2018-10-06T00:19:56.898Z,23.16
2018-10-06T00:22:25.987Z,23.14
2018-10-06T00:24:54.320Z,23.13
2018-10-06T00:27:22.738Z,23.14
2018-10-06T00:29:51.065Z,23.13
2018-10-06T00:32:19.431Z,23.11
2018-10-06T00:34:47.803Z,23.10
2018-10-06T00:37:16.089Z,23.10
2018-10-06T00:39:44.394Z,23.08
2018-10-06T00:42:12.843Z,23.08
2018-10-06T00:44:41.208Z,23.06
2018-10-06T00:47:10.537Z,23.04
2018-10-06T00:49:39.172Z,23.03
2018-10-06T00:52:07.519Z,23.02
2018-10-06T00:54:35.842Z,23.03
2018-10-06T00:57:04.159Z,23.01
2018-10-06T00:59:32.483Z,23.01
2018-10-06T01:02:00.822Z,22.99
2018-10-06T01:04:29.092Z,22.98
2018-10-06T01:06:57.467Z,22.98
2018-10-06T01:09:25.779Z,22.94
2018-10-06T01:11:54.154Z,22.95
2018-10-06T01:14:22.443Z,22.93
2018-10-06T01:16:50.851Z,22.92
2018-10-06T01:19:19.159Z,22.92
2018-10-06T01:21:47.552Z,22.89
2018-10-06T01:24:15.881Z,22.90
2018-10-06T01:26:44.271Z,22.89
2018-10-06T01:29:12.880Z,22.87
2018-10-06T01:31:41.377Z,22.86
2018-10-06T01:34:09.974Z,22.86
2018-10-06T01:36:38.541Z,22.85
2018-10-06T01:39:07.757Z,22.82
2018-10-06T01:41:36.053Z,22.82
2018-10-06T01:44:04.459Z,22.79
2018-10-06T01:46:32.763Z,22.80
2018-10-06T01:49:01.076Z,22.79
2018-10-06T01:51:29.419Z,22.78
2018-10-06T01:53:57.810Z,22.76
2018-10-06T01:56:26.203Z,22.75
2018-10-06T01:58:54.532Z,22.74
2018-10-06T02:01:22.863Z,22.73
2018-10-06T02:03:51.166Z,22.73
2018-10-06T02:06:19.494Z,22.72
2018-10-06T02:08:47.841Z,22.69
2018-10-06T02:11:16.227Z,22.69
2018-10-06T02:13:44.575Z,22.67
2018-10-06T02:16:12.915Z,22.67
2018-10-06T02:18:41.290Z,22.66
2018-10-06T02:21:09.610Z,22.66
2018-10-06T02:23:37.968Z,22.64
2018-10-06T02:26:06.658Z,22.63
2018-10-06T02:28:35.097Z,22.61
2018-10-06T02:31:03.434Z,22.60
2018-10-06T02:33:31.766Z,22.62
2018-10-06T02:36:00.068Z,22.61
2018-10-06T02:38:28.468Z,22.61
2018-10-06T02:40:56.774Z,22.58
2018-10-06T02:43:25.139Z,22.58
2018-10-06T02:45:53.490Z,22.59
2018-10-06T02:48:21.799Z,22.57
2018-10-06T02:50:50.095Z,22.57
2018-10-06T02:53:18.603Z,22.57
2018-10-06T02:55:46.963Z,22.57
2018-10-06T02:58:15.378Z,22.58
2018-10-06T03:00:43.671Z,22.56
2018-10-06T03:03:12.006Z,22.55
2018-10-06T03:05:40.319Z,22.52
2018-10-06T03:08:08.661Z,22.53
2018-10-06T03:10:36.999Z,22.53
2018-10-06T03:13:05.338Z,22.51
2018-10-06T03:15:33.663Z,22.49
2018-10-06T03:18:01.958Z,22.49
2018-10-06T03:20:30.420Z,22.49
2018-10-06T03:22:58.710Z,22.49
2018-10-06T03:25:27.002Z,22.48
2018-10-06T03:27:55.402Z,22.47
2018-10-06T03:30:23.736Z,22.46
2018-10-06T03:32:52.022Z,22.46
2018-10-06T03:35:20.549Z,22.45
2018-10-06T03:37:48.854Z,22.45
2018-10-06T03:40:17.189Z,22.44
2018-10-06T03:42:45.483Z,22.44
2018-10-06T03:45:13.850Z,22.43
2018-10-06T03:47:42.135Z,22.42
2018-10-06T03:50:10.446Z,22.42
2018-10-06T03:52:38.778Z,22.42
2018-10-06T03:55:07.180Z,22.40
2018-10-06T03:57:35.472Z,22.42
2018-10-06T04:00:03.817Z,22.40
2018-10-06T04:02:32.090Z,22.40
2018-10-06T04:05:00.455Z,22.40
2018-10-06T04:07:28.786Z,22.37
2018-10-06T04:09:57.087Z,22.37
2018-10-06T04:12:25.503Z,22.37
2018-10-06T04:14:53.895Z,22.36
2018-10-06T04:17:22.394Z,22.38
2018-10-06T04:19:50.826Z,22.38
2018-10-06T04:22:19.182Z,22.37
2018-10-06T04:24:47.589Z,22.35
2018-10-06T04:27:16.055Z,22.34
2018-10-06T04:29:44.402Z,22.35
2018-10-06T04:32:12.842Z,22.35
2018-10-06T04:34:41.200Z,22.33
2018-10-06T04:37:09.583Z,22.33
2018-10-06T04:39:37.942Z,22.32
2018-10-06T04:42:06.304Z,22.32
2018-10-06T04:44:34.738Z,22.31
2018-10-06T04:47:03.046Z,22.28
2018-10-06T04:49:31.371Z,22.27
2018-10-06T04:51:59.734Z,22.25
2018-10-06T04:54:28.066Z,22.27
2018-10-06T04:56:56.358Z,22.26
2018-10-06T04:59:24.907Z,22.28
2018-10-06T05:01:53.178Z,22.27
2018-10-06T05:04:21.516Z,22.24
2018-10-06T05:06:49.818Z,22.24
2018-10-06T05:09:18.179Z,22.23
2018-10-06T05:11:46.511Z,22.22
2018-10-06T05:14:14.822Z,22.21
2018-10-06T05:16:43.363Z,22.23
2018-10-06T05:19:11.715Z,22.23
2018-10-06T05:21:41.165Z,22.23
2018-10-06T05:24:09.488Z,22.22
2018-10-06T05:26:37.847Z,22.21
2018-10-06T05:29:06.187Z,22.21
2018-10-06T05:31:34.550Z,22.18
2018-10-06T05:34:02.955Z,22.18
2018-10-06T05:36:31.310Z,22.21
2018-10-06T05:38:59.650Z,22.16
2018-10-06T05:41:28.404Z,22.14
2018-10-06T05:49:07.950Z,22.10
2018-10-06T05:51:36.462Z,22.10
2018-10-06T05:54:05.015Z,22.09
2018-10-06T05:56:34.312Z,22.09
2018-10-06T05:59:05.188Z,22.08
2018-10-06T06:01:34.141Z,22.09
2018-10-06T06:04:02.571Z,22.08
2018-10-06T06:06:30.939Z,22.08
2018-10-06T06:08:59.956Z,22.09
2018-10-06T06:11:30.715Z,22.07
2018-10-06T06:14:00.244Z,22.07
2018-10-06T06:16:28.710Z,22.09
2018-10-06T06:18:57.161Z,22.15
2018-10-06T06:21:25.993Z,22.22
2018-10-06T06:23:54.590Z,22.23
2018-10-06T06:26:23.381Z,22.24
2018-10-06T06:28:51.880Z,22.27
2018-10-06T06:31:20.360Z,22.30
2018-10-06T06:33:48.886Z,22.35
2018-10-06T06:36:17.298Z,22.38
2018-10-06T06:38:45.610Z,22.41
2018-10-06T06:41:14.002Z,22.45
2018-10-06T06:43:42.448Z,22.48
2018-10-06T06:46:10.738Z,22.52
2018-10-06T06:48:39.162Z,22.56
2018-10-06T06:51:07.498Z,22.60
2018-10-06T06:53:35.794Z,22.64
2018-10-06T06:56:04.217Z,22.67
2018-10-06T06:58:32.528Z,22.72
2018-10-06T07:01:00.867Z,22.75
2018-10-06T07:03:31.785Z,22.79
2018-10-06T07:06:00.628Z,22.83
2018-10-06T07:08:29.762Z,22.86
2018-10-06T07:10:58.686Z,22.90
2018-10-06T07:13:27.642Z,22.95
2018-10-06T07:15:56.095Z,23.01
2018-10-06T07:18:24.643Z,23.05
2018-10-06T07:20:53.012Z,23.09
2018-10-06T07:23:21.315Z,23.12
2018-10-06T07:25:52.284Z,23.16
2018-10-06T07:28:20.706Z,23.20
2018-10-06T07:30:49.167Z,23.24
2018-10-06T07:33:17.550Z,23.27
2018-10-06T07:35:45.916Z,23.32
2018-10-06T07:38:15.039Z,23.34
2018-10-06T07:40:43.356Z,23.38
2018-10-06T07:43:11.761Z,23.43
2018-10-06T07:45:40.316Z,23.46
2018-10-06T07:48:08.683Z,23.49
2018-10-06T07:50:37.826Z,23.55
2018-10-06T07:53:06.270Z,23.58
2018-10-06T07:55:35.339Z,23.64
2018-10-06T07:58:03.763Z,23.67
2018-10-06T08:00:32.179Z,23.70
2018-10-06T08:03:01.260Z,23.76
2018-10-06T08:05:30.215Z,23.79
2018-10-06T08:07:59.332Z,23.82
2018-10-06T08:10:28.372Z,23.86
2018-10-06T08:12:56.851Z,23.88
2018-10-06T08:15:25.228Z,23.93
2018-10-06T08:17:53.740Z,23.97
2018-10-06T08:20:22.424Z,24.02
2018-10-06T08:22:51.198Z,24.06
2018-10-06T08:25:19.659Z,24.11
2018-10-06T08:27:48.044Z,24.14
2018-10-06T08:30:18.203Z,24.19
2018-10-06T08:32:46.763Z,24.21
2018-10-06T08:35:15.308Z,24.27
2018-10-06T08:37:44.215Z,24.32
2018-10-06T08:40:12.596Z,24.37
2018-10-06T08:42:41.100Z,24.40
2018-10-06T08:45:09.485Z,24.45
2018-10-06T08:47:37.976Z,24.49
2018-10-06T08:50:06.323Z,24.53
2018-10-06T08:52:35.211Z,24.57
2018-10-06T08:55:03.533Z,24.61
2018-10-06T08:57:31.848Z,24.66
2018-10-06T09:00:00.227Z,24.68
2018-10-06T09:02:28.583Z,24.72
2018-10-06T09:04:57.006Z,24.75
2018-10-06T09:07:28.372Z,24.79
2018-10-06T09:09:57.180Z,24.83
2018-10-06T09:12:26.233Z,24.86
2018-10-06T09:14:54.778Z,24.89
2018-10-06T09:17:23.358Z,24.92
2018-10-06T09:19:53.227Z,24.95
2018-10-06T09:22:21.712Z,25.00
2018-10-06T09:24:50.164Z,25.04
2018-10-06T09:27:19.146Z,25.09
2018-10-06T09:29:47.600Z,25.14
2018-10-06T09:32:15.997Z,25.20
2018-10-06T09:34:47.075Z,25.24
2018-10-06T09:37:16.713Z,25.28
2018-10-06T09:39:45.768Z,25.29
2018-10-06T09:42:14.321Z,25.37
2018-10-06T09:44:43.023Z,25.41
2018-10-06T09:47:12.668Z,25.42
2018-10-06T09:49:41.267Z,25.47
2018-10-06T09:52:09.767Z,25.50
2018-10-06T09:54:38.259Z,25.54
2018-10-06T09:57:06.676Z,25.58
2018-10-06T09:59:35.194Z,25.64
2018-10-06T10:02:10.791Z,25.67
2018-10-06T10:04:39.486Z,25.74
2018-10-06T10:07:07.941Z,25.77
2018-10-06T10:09:36.247Z,25.80
2018-10-06T10:12:35.457Z,25.84
2018-10-06T10:15:04.228Z,25.86
2018-10-06T10:17:32.771Z,25.90
2018-10-06T10:20:01.849Z,25.94
2018-10-06T10:22:30.675Z,25.97
2018-10-06T10:25:00.205Z,26.01
2018-10-06T10:27:28.614Z,26.06
2018-10-06T10:29:56.936Z,26.08
2018-10-06T10:32:27.336Z,26.13
2018-10-06T10:34:55.826Z,26.18
2018-10-06T10:37:26.997Z,26.22
2018-10-06T10:39:56.053Z,26.28
2018-10-06T10:42:25.064Z,26.31
2018-10-06T10:44:53.602Z,26.35
2018-10-06T10:47:24.071Z,26.39
2018-10-06T10:49:52.809Z,26.43
2018-10-06T10:52:21.809Z,26.47
2018-10-06T10:54:50.400Z,26.52
2018-10-06T10:57:18.797Z,26.56
2018-10-06T10:59:47.930Z,26.60
2018-10-06T11:02:18.339Z,26.64
2018-10-06T11:04:47.482Z,26.68
2018-10-06T11:07:15.762Z,26.72
2018-10-06T11:09:44.274Z,26.76
2018-10-06T11:12:13.523Z,26.80
2018-10-06T11:14:41.927Z,26.83
2018-10-06T11:17:11.125Z,26.88
2018-10-06T11:19:40.188Z,26.91
2018-10-06T11:22:09.306Z,26.95
2018-10-06T11:24:37.787Z,26.97
2018-10-06T11:27:08.428Z,26.97
2018-10-06T11:29:40.057Z,26.99
2018-10-06T11:32:08.639Z,27.08
2018-10-06T11:34:37.191Z,27.11
2018-10-06T11:42:09.267Z,27.17
2018-10-06T11:44:37.791Z,27.19
2018-10-06T11:47:07.735Z,27.22
2018-10-06T11:49:37.111Z,27.25
2018-10-06T11:52:07.847Z,27.27
2018-10-06T11:54:36.256Z,27.28
2018-10-06T11:57:06.949Z,27.32
2018-10-06T11:59:35.407Z,27.33
2018-10-06T12:02:03.966Z,27.33
2018-10-06T12:04:33.050Z,27.34
2018-10-06T12:07:02.486Z,27.34
2018-10-06T12:09:31.575Z,27.36
2018-10-06T12:11:59.998Z,27.36
2018-10-06T12:14:34.044Z,27.35
2018-10-06T12:17:02.921Z,27.35
2018-10-06T12:19:31.343Z,27.35
2018-10-06T12:21:59.648Z,27.34
2018-10-06T12:24:27.978Z,27.33
2018-10-06T12:26:56.335Z,27.33
2018-10-06T12:29:24.938Z,27.32
2018-10-06T12:31:53.355Z,27.31
2018-10-06T12:34:21.918Z,27.30
2018-10-06T12:36:50.352Z,27.29
2018-10-06T12:39:18.771Z,27.28
2018-10-06T12:41:47.160Z,27.27
2018-10-06T12:44:15.591Z,27.24
2018-10-06T12:46:43.910Z,27.22
2018-10-06T12:49:12.351Z,27.19
2018-10-06T12:51:40.791Z,27.15
2018-10-06T12:54:09.671Z,27.13
2018-10-06T12:56:38.253Z,27.12
2018-10-06T12:59:06.950Z,27.10
2018-10-06T13:01:36.142Z,27.08
2018-10-06T13:04:04.547Z,27.08
2018-10-06T13:06:32.878Z,27.08
2018-10-06T13:09:01.438Z,27.06
2018-10-06T13:11:29.888Z,27.04
2018-10-06T13:13:58.266Z,27.04
2018-10-06T13:16:26.696Z,27.03
2018-10-06T13:18:55.019Z,27.02
2018-10-06T13:21:23.343Z,27.00
2018-10-06T13:23:51.702Z,26.98
2018-10-06T13:26:20.095Z,26.97
2018-10-06T13:28:48.468Z,26.96
2018-10-06T13:31:16.932Z,26.95
2018-10-06T13:33:45.284Z,26.95
2018-10-06T13:36:13.620Z,26.94
2018-10-06T13:38:41.998Z,26.93
2018-10-06T13:41:10.374Z,26.93
2018-10-06T13:43:38.763Z,26.92
2018-10-06T13:46:07.170Z,26.91
2018-10-06T13:48:35.531Z,26.90
2018-10-06T13:51:04.346Z,26.90
2018-10-06T13:53:32.662Z,26.89
2018-10-06T13:56:01.072Z,26.87
2018-10-06T13:58:29.413Z,26.87
2018-10-06T14:00:58.231Z,26.85
2018-10-06T14:03:26.993Z,26.82
2018-10-06T14:05:55.600Z,26.81
2018-10-06T14:08:24.248Z,26.81
2018-10-06T14:10:52.881Z,26.79
2018-10-06T14:13:21.457Z,26.78
2018-10-06T14:15:50.402Z,26.76
2018-10-06T14:18:18.941Z,26.75
2018-10-06T14:20:47.303Z,26.73
2018-10-06T14:23:16.699Z,26.73
2018-10-06T14:25:45.100Z,26.71
2018-10-06T14:28:13.423Z,26.70
2018-10-06T14:30:41.782Z,26.69
2018-10-06T14:33:10.202Z,26.66
2018-10-06T14:35:38.627Z,26.65
2018-10-06T14:38:06.981Z,26.64
2018-10-06T14:40:35.778Z,26.63
2018-10-06T14:43:04.347Z,26.63
2018-10-06T14:45:32.833Z,26.62
2018-10-06T14:48:01.248Z,26.61
2018-10-06T14:50:30.628Z,26.60
2018-10-06T14:52:58.971Z,26.59
2018-10-06T14:55:27.318Z,26.59
2018-10-06T14:57:55.636Z,26.59
2018-10-06T15:00:23.991Z,26.56
2018-10-06T15:02:52.355Z,26.56
2018-10-06T15:05:20.704Z,26.54
2018-10-06T15:07:49.040Z,26.54
2018-10-06T15:10:17.415Z,26.52
2018-10-06T15:12:45.771Z,26.52
2018-10-06T15:15:14.062Z,26.50
2018-10-06T15:17:42.539Z,26.49
2018-10-06T15:20:11.106Z,26.48
2018-10-06T15:22:40.170Z,26.48
2018-10-06T15:25:08.829Z,26.47
2018-10-06T15:27:37.474Z,26.45
2018-10-06T15:30:06.483Z,26.43
2018-10-06T15:32:34.823Z,26.42
2018-10-06T15:35:03.189Z,26.41
2018-10-06T15:37:31.521Z,26.40
2018-10-06T15:39:59.858Z,26.40
2018-10-06T15:42:28.243Z,26.38
2018-10-06T15:44:56.596Z,26.38
2018-10-06T15:47:24.981Z,26.37
2018-10-06T15:49:53.270Z,26.37
2018-10-06T15:52:21.712Z,26.37
2018-10-06T15:54:50.018Z,26.35
2018-10-06T15:57:18.337Z,26.34
2018-10-06T15:59:46.839Z,26.34
2018-10-06T16:02:15.148Z,26.32
2018-10-06T16:04:43.471Z,26.30
2018-10-06T16:07:11.899Z,26.30
2018-10-06T16:09:40.278Z,26.28
2018-10-06T16:12:08.612Z,26.28
2018-10-06T16:14:36.931Z,26.27
2018-10-06T16:17:05.255Z,26.26
2018-10-06T16:19:33.557Z,26.25
2018-10-06T16:22:01.923Z,26.24
2018-10-06T16:24:30.246Z,26.23
2018-10-06T16:26:58.618Z,26.21
2018-10-06T16:29:26.958Z,26.20
2018-10-06T16:31:55.340Z,26.19
2018-10-06T16:34:23.753Z,26.18
2018-10-06T16:36:52.099Z,26.15
2018-10-06T16:39:20.425Z,26.14
2018-10-06T16:41:48.799Z,26.11
2018-10-06T16:44:17.200Z,26.10
2018-10-06T16:46:45.543Z,26.07
2018-10-06T16:49:13.962Z,26.06
2018-10-06T16:51:42.324Z,26.04
2018-10-06T16:54:10.671Z,26.02
2018-10-06T16:56:40.074Z,26.00
2018-10-06T16:59:08.385Z,25.99
2018-10-06T17:01:36.790Z,25.97
2018-10-06T17:04:05.081Z,25.95
2018-10-06T17:06:33.450Z,25.94
2018-10-06T17:09:01.793Z,25.92
2018-10-06T17:11:30.123Z,25.90
2018-10-06T17:13:58.468Z,25.88
2018-10-06T17:16:27.952Z,25.86
2018-10-06T17:18:56.266Z,25.83
2018-10-06T17:21:24.572Z,25.82
2018-10-06T17:23:52.931Z,25.80
2018-10-06T17:26:21.276Z,25.79
2018-10-06T17:28:49.554Z,25.77
2018-10-06T17:31:18.059Z,25.76
2018-10-06T17:33:46.315Z,25.73
2018-10-06T17:36:14.631Z,25.73
2018-10-06T17:38:43.052Z,25.70
2018-10-06T17:41:11.368Z,25.68
2018-10-06T17:43:39.844Z,25.65
2018-10-06T17:46:08.318Z,25.65
2018-10-06T17:48:36.654Z,25.64
2018-10-06T17:51:04.951Z,25.62
2018-10-06T17:53:36.442Z,25.62
2018-10-06T17:56:04.750Z,25.60
2018-10-06T17:58:33.149Z,25.59
2018-10-06T18:01:01.472Z,25.59
2018-10-06T18:03:29.859Z,25.57
2018-10-06T18:05:58.200Z,25.56
2018-10-06T18:08:26.563Z,25.53
2018-10-06T18:10:54.894Z,25.51
2018-10-06T18:13:23.248Z,25.50
2018-10-06T18:15:51.523Z,25.49
2018-10-06T18:18:19.934Z,25.47
2018-10-06T18:20:48.274Z,25.47
2018-10-06T18:23:16.639Z,25.45
2018-10-06T18:25:44.939Z,25.45
2018-10-06T18:28:13.331Z,25.42
2018-10-06T18:30:41.695Z,25.42
2018-10-06T18:33:10.036Z,25.42
2018-10-06T18:35:40.471Z,25.40
2018-10-06T18:38:09.000Z,25.40
2018-10-06T18:40:37.404Z,25.39
2018-10-06T18:43:06.928Z,25.38
2018-10-06T18:45:35.215Z,25.37
2018-10-06T18:48:03.623Z,25.35
2018-10-06T18:50:32.295Z,25.35
2018-10-06T18:53:01.031Z,25.35
2018-10-06T18:55:29.708Z,25.33
2018-10-06T18:57:58.416Z,25.33
2018-10-06T19:00:26.735Z,25.32
2018-10-06T19:02:55.159Z,25.30
2018-10-06T19:05:23.455Z,25.30
2018-10-06T19:07:51.771Z,25.28
2018-10-06T19:10:20.079Z,25.28
2018-10-06T19:12:48.427Z,25.28
2018-10-06T19:15:21.960Z,25.26
2018-10-06T19:17:50.322Z,25.24
2018-10-06T19:20:18.602Z,25.24
2018-10-06T19:22:47.067Z,25.24
2018-10-06T19:25:15.343Z,25.23
2018-10-06T19:27:43.757Z,25.21
2018-10-06T19:30:12.058Z,25.20
2018-10-06T19:32:40.387Z,25.19
2018-10-06T19:35:08.752Z,25.20
2018-10-06T19:37:37.123Z,25.17
2018-10-06T19:40:05.687Z,25.17
2018-10-06T19:42:34.998Z,25.15
2018-10-06T19:45:03.345Z,25.14
2018-10-06T19:47:31.671Z,25.13
2018-10-06T19:50:00.058Z,25.13
2018-10-06T19:52:28.419Z,25.11
2018-10-06T19:54:56.723Z,25.10
2018-10-06T19:57:25.149Z,25.10
2018-10-06T19:59:53.464Z,25.06
2018-10-06T20:02:21.766Z,25.08
2018-10-06T20:04:50.079Z,25.06
2018-10-06T20:07:18.402Z,25.06
2018-10-06T20:09:47.934Z,25.05
2018-10-06T20:12:16.337Z,25.03
2018-10-06T20:14:45.682Z,25.01
2018-10-06T20:17:14.110Z,25.00
2018-10-06T20:19:42.418Z,25.00
2018-10-06T20:22:12.479Z,24.99
2018-10-06T20:24:40.920Z,24.99
2018-10-06T20:27:09.542Z,24.97
2018-10-06T20:29:38.020Z,24.97
2018-10-06T20:32:06.359Z,24.96
2018-10-06T20:34:34.715Z,24.94
2018-10-06T20:37:04.090Z,24.94
2018-10-06T20:39:32.425Z,24.93
2018-10-06T20:42:01.087Z,24.92
2018-10-06T20:44:29.456Z,24.91
2018-10-06T20:46:57.739Z,24.89
2018-10-06T20:49:26.122Z,24.89
2018-10-06T20:51:54.423Z,24.88
2018-10-06T20:54:23.068Z,24.87
2018-10-06T20:56:51.388Z,24.87
2018-10-06T20:59:19.747Z,24.85
2018-10-06T21:01:48.429Z,24.81
2018-10-06T21:04:16.806Z,24.84
2018-10-06T21:06:45.334Z,24.82
2018-10-06T21:09:14.162Z,24.81
2018-10-06T21:11:42.870Z,24.80
2018-10-06T21:14:12.234Z,24.79
2018-10-06T21:16:40.905Z,24.78
2018-10-06T21:19:09.322Z,24.78
2018-10-06T21:21:37.611Z,24.77
2018-10-06T21:24:05.927Z,24.75
2018-10-06T21:26:34.250Z,24.75
2018-10-06T21:29:03.552Z,24.74
2018-10-06T21:31:31.921Z,24.72
2018-10-06T21:34:00.177Z,24.71
2018-10-06T21:36:28.524Z,24.70
2018-10-06T21:38:57.349Z,24.69
2018-10-06T21:41:25.880Z,24.69
2018-10-06T21:43:54.324Z,24.68
2018-10-06T21:46:22.638Z,24.66
2018-10-06T21:48:50.926Z,24.64
2018-10-06T21:51:19.255Z,24.64
2018-10-06T21:53:47.559Z,24.62
2018-10-06T21:56:15.883Z,24.61
2018-10-06T21:58:45.274Z,24.60
2018-10-06T22:01:14.550Z,24.58
2018-10-06T22:03:43.163Z,24.56
2018-10-06T22:06:11.503Z,24.55
2018-10-06T22:08:40.059Z,24.53
2018-10-06T22:11:08.389Z,24.52
2018-10-06T22:13:36.739Z,24.51
2018-10-06T22:16:05.110Z,24.50
2018-10-06T22:18:33.398Z,24.49
2018-10-06T22:21:01.812Z,24.50
2018-10-06T22:23:30.127Z,24.48
2018-10-06T22:25:58.452Z,24.47
2018-10-06T22:28:26.743Z,24.46
2018-10-06T22:30:55.123Z,24.45
2018-10-06T22:33:23.422Z,24.43
2018-10-06T22:35:51.780Z,24.43
2018-10-06T22:38:20.199Z,24.42
2018-10-06T22:40:48.506Z,24.40
2018-10-06T22:43:16.834Z,24.40
2018-10-06T22:45:45.174Z,24.38
2018-10-06T22:48:13.491Z,24.38
2018-10-06T22:50:41.814Z,24.37
2018-10-06T22:53:10.204Z,24.34
2018-10-06T22:55:39.366Z,24.34
2018-10-06T22:58:07.667Z,24.34
2018-10-06T23:00:35.968Z,24.32
2018-10-06T23:03:04.414Z,24.32
2018-10-06T23:05:32.683Z,24.30
2018-10-06T23:08:00.984Z,24.30
2018-10-06T23:10:29.310Z,24.30
2018-10-06T23:12:57.607Z,24.28
2018-10-06T23:15:25.929Z,24.25
2018-10-06T23:17:54.244Z,24.25
2018-10-06T23:20:22.874Z,24.23
2018-10-06T23:22:51.501Z,24.23
2018-10-06T23:25:20.098Z,24.22
2018-10-06T23:27:48.643Z,24.22
2018-10-06T23:30:17.015Z,24.20
2018-10-06T23:32:45.395Z,24.20
2018-10-06T23:35:13.726Z,24.18
2018-10-06T23:37:42.063Z,24.18
2018-10-06T23:40:10.359Z,24.17
2018-10-06T23:42:38.709Z,24.16
2018-10-06T23:45:07.067Z,24.15
2018-10-06T23:47:35.445Z,24.14
2018-10-06T23:50:03.982Z,24.10
2018-10-06T23:52:32.291Z,24.12
2018-10-06T23:55:00.583Z,24.10
2018-10-06T23:57:28.984Z,24.09
2018-10-06T23:59:57.271Z,24.08
